Fritz — WDF3166 — position and weather

sailwx.info

Track history (hours):
 
Tides and Currents Weather Stations Pressure Air Temp Water Temp Dewpoint Dewpoint Depression Visibility Wind Speed Wind Dir Waves Ship Positions

Fritz

Owner: Enterprise Marine Services, LLC, San Antonio, TX. More information available from US FCC via Universal Licensing System and Coast Guard Vessel Documentation Center.

Last reported at 2018-Jun-08 13:47 UTC. Time now 2018-Jun-25 04:25 UTC.
Position N 32°57' W 091°06'.
Warning: this ship's position is 16 days out of date.

Length 31 m.

Type: Towing. MMSI: 367428150.

Date/timePositionNaut miles runAvg speedWind from/ knotsBaromVisibWave heightAir tempDewpointWater temp
2018-Jun-08 13:47N 32°57' W 091°06'3 4.9
2018-Jun-08 13:09N 32°54' W 091°04'4 6.4
2018-Jun-08 12:35N 32°51' W 091°07'2 6.2
2018-Jun-08 12:12N 32°50' W 091°09'1 6.0
2018-Jun-08 12:00N 32°48' W 091°09'3 5.9
2018-Jun-08 11:27N 32°45' W 091°09'4 1.7
2018-Jun-08 09:03N 32°44' W 091°05'1 5.7
2018-Jun-08 08:55N 32°44' W 091°04'2 4.7
2018-Jun-08 08:30N 32°42' W 091°04'3 5.7
2018-Jun-08 07:56N 32°40' W 091°07'3 5.9
2018-Jun-08 07:30N 32°38' W 091°09'3 6.0
2018-Jun-08 07:00N 32°35' W 091°08'3 5.9
2018-Jun-08 06:30N 32°33' W 091°06'3 6.0
2018-Jun-08 06:00N 32°30' W 091°07'3 5.7
2018-Jun-08 05:30N 32°27' W 091°06'3 6.3
2018-Jun-08 05:00N 32°26' W 091°02'3 5.8
2018-Jun-08 04:30N 32°24' W 090°59'3 6.2
2018-Jun-08 04:00N 32°21' W 091°00'3 6.3
2018-Jun-08 03:30N 32°21' W 090°56'3 5.1
2018-Jun-08 03:00N 32°19' W 090°54'3 5.8
2018-Jun-08 02:30N 32°17' W 090°57'3 6.0
2018-Jun-08 02:00N 32°15' W 090°59'3 6.6
2018-Jun-08 01:30N 32°11' W 090°60'3 6.1
2018-Jun-08 01:00N 32°08' W 091°00'3 5.3
2018-Jun-08 00:30N 32°08' W 091°03'3 5.3
2018-Jun-08 00:00N 32°07' W 091°06'5 5.9
2018-Jun-07 23:09N 32°03' W 091°04'2 6.5
2018-Jun-07 22:53N 32°01' W 091°04'  
2018-Jun-01 00:40N 31°59' W 091°07'2 9.4
2018-Jun-01 00:29N 32°00' W 091°05'6 8.3
2018-May-31 23:45N 32°06' W 091°06'2 7.1
2018-May-31 23:30N 32°08' W 091°05'4 8.4
2018-May-31 23:00N 32°08' W 091°00'5 9.8
2018-May-31 22:30N 32°13' W 090°59'4 8.8
2018-May-31 22:00N 32°17' W 090°57'4 7.8
2018-May-31 21:30N 32°20' W 090°55'4 8.7
2018-May-31 21:00N 32°21' W 090°60'4 7.8
2018-May-31 20:30N 32°25' W 091°00'5 9.4
2018-May-31 20:00N 32°27' W 091°05'4 8.3
2018-May-31 19:28N 32°31' W 091°06'4 8.5
2018-May-31 19:00N 32°35' W 091°08'  
Track history (hours):
 
Tides and Currents Weather Stations Pressure Air Temp Water Temp Dewpoint Dewpoint Depression Visibility Wind Speed Wind Dir Waves Ship Positions

Fritz

Owner: Enterprise Marine Services, LLC, San Antonio, TX. More information available from US FCC via Universal Licensing System and Coast Guard Vessel Documentation Center.

Last reported at 2018-Jun-08 13:47 UTC. Time now 2018-Jun-25 04:25 UTC.
Position N 32°57' W 091°06'.
Warning: this ship's position is 16 days out of date.

Length 31 m.

Type: Towing. MMSI: 367428150.

Date/timePositionNaut miles runAvg speedWind from/ knotsBaromVisibWave heightAir tempDewpointWater temp
2018-Jun-08 13:47N 32°57' W 091°06'3 4.9
2018-Jun-08 13:09N 32°54' W 091°04'4 6.4
2018-Jun-08 12:35N 32°51' W 091°07'2 6.2
2018-Jun-08 12:12N 32°50' W 091°09'1 6.0
2018-Jun-08 12:00N 32°48' W 091°09'3 5.9
2018-Jun-08 11:27N 32°45' W 091°09'4 1.7
2018-Jun-08 09:03N 32°44' W 091°05'1 5.7
2018-Jun-08 08:55N 32°44' W 091°04'2 4.7
2018-Jun-08 08:30N 32°42' W 091°04'3 5.7
2018-Jun-08 07:56N 32°40' W 091°07'3 5.9
2018-Jun-08 07:30N 32°38' W 091°09'3 6.0
2018-Jun-08 07:00N 32°35' W 091°08'3 5.9
2018-Jun-08 06:30N 32°33' W 091°06'3 6.0
2018-Jun-08 06:00N 32°30' W 091°07'3 5.7
2018-Jun-08 05:30N 32°27' W 091°06'3 6.3
2018-Jun-08 05:00N 32°26' W 091°02'3 5.8
2018-Jun-08 04:30N 32°24' W 090°59'3 6.2
2018-Jun-08 04:00N 32°21' W 091°00'3 6.3
2018-Jun-08 03:30N 32°21' W 090°56'3 5.1
2018-Jun-08 03:00N 32°19' W 090°54'3 5.8
2018-Jun-08 02:30N 32°17' W 090°57'3 6.0
2018-Jun-08 02:00N 32°15' W 090°59'3 6.6
2018-Jun-08 01:30N 32°11' W 090°60'3 6.1
2018-Jun-08 01:00N 32°08' W 091°00'3 5.3
2018-Jun-08 00:30N 32°08' W 091°03'3 5.3
2018-Jun-08 00:00N 32°07' W 091°06'5 5.9
2018-Jun-07 23:09N 32°03' W 091°04'2 6.5
2018-Jun-07 22:53N 32°01' W 091°04'  
2018-Jun-01 00:40N 31°59' W 091°07'2 9.4
2018-Jun-01 00:29N 32°00' W 091°05'6 8.3
2018-May-31 23:45N 32°06' W 091°06'2 7.1
2018-May-31 23:30N 32°08' W 091°05'4 8.4
2018-May-31 23:00N 32°08' W 091°00'5 9.8
2018-May-31 22:30N 32°13' W 090°59'4 8.8
2018-May-31 22:00N 32°17' W 090°57'4 7.8
2018-May-31 21:30N 32°20' W 090°55'4 8.7
2018-May-31 21:00N 32°21' W 090°60'4 7.8
2018-May-31 20:30N 32°25' W 091°00'5 9.4
2018-May-31 20:00N 32°27' W 091°05'4 8.3
2018-May-31 19:28N 32°31' W 091°06'4 8.5
2018-May-31 19:00N 32°35' W 091°08'  

Dump ship's entire track history